Time;durP1;ratioP1;P1;durP2;ratioP2;P2;SDS_P1;SDS_P2;PMS_P1;PMS_P2;Temp;Humidity;BMP_temperature;BMP_pressure;BME280_temperature;BME280_humidity;BME280_pressure;Samples;Min_cycle;Max_cycle;Signal;HPM_P1;HPM_P2
2023/01/18 00:00:43;;;;;;;19.65;7.07;;;;;;;;;;6304010;22;20082;-83
2023/01/18 00:03:12;;;;;;;13.85;6.22;;;;;;;;;;6304008;22;20058;-83
2023/01/18 00:05:40;;;;;;;17.55;7.35;;;;;;;;;;6276028;22;20114;-83
2023/01/18 00:08:10;;;;;;;15.40;7.05;;;;;;;;;;6303131;22;20094;-83
2023/01/18 00:10:37;;;;;;;15.32;6.80;;;;;;;;;;6303374;22;20031;-83
2023/01/18 00:13:03;;;;;;;13.00;6.10;;;;;;;;;;6303856;22;20556;-83
2023/01/18 00:15:33;;;;;;;14.63;6.97;;;;;;;;;;6303937;22;20098;-83
2023/01/18 00:18:03;;;;;;;14.93;6.35;;;;;;;;;;6303313;22;20416;-83
2023/01/18 00:20:30;;;;;;;16.63;6.57;;;;;;;;;;6276034;22;20115;-83
2023/01/18 00:22:58;;;;;;;16.85;6.13;;;;;;;;;;6304035;22;20039;-83
2023/01/18 00:25:24;;;;;;;11.85;5.55;;;;;;;;;;6303389;22;20035;-83
2023/01/18 00:27:52;;;;;;;15.52;6.65;;;;;;;;;;6303273;22;20030;-83
2023/01/18 00:30:20;;;;;;;14.95;6.80;;;;;;;;;;6303519;22;20024;-83
2023/01/18 00:32:46;;;;;;;12.00;5.78;;;;;;;;;;6276479;22;20031;-83
2023/01/18 00:35:14;;;;;;;17.67;6.47;;;;;;;;;;6304327;22;20889;-83
2023/01/18 00:37:40;;;;;;;13.85;6.30;;;;;;;;;;6276379;22;20112;-83
2023/01/18 00:40:07;;;;;;;15.15;6.35;;;;;;;;;;6303371;22;20032;-82
2023/01/18 00:45:18;;;;;;;14.45;6.22;;;;;;;;;;6303185;22;20027;-83
2023/01/18 00:47:45;;;;;;;15.27;6.35;;;;;;;;;;6303089;22;20053;-83
2023/01/18 00:50:11;;;;;;;13.93;6.43;;;;;;;;;;6275760;22;20024;-83
2023/01/18 00:52:39;;;;;;;15.32;5.88;;;;;;;;;;6303230;22;20511;-83
2023/01/18 00:55:06;;;;;;;15.55;5.90;;;;;;;;;;6303522;22;20487;-83
2023/01/18 00:57:32;;;;;;;12.35;5.70;;;;;;;;;;6303037;22;20499;-84
2023/01/18 00:59:58;;;;;;;13.23;5.75;;;;;;;;;;6302329;22;20028;-82
2023/01/18 01:02:25;;;;;;;12.85;6.43;;;;;;;;;;6276170;22;20034;-82
2023/01/18 01:07:36;;;;;;;13.93;6.72;;;;;;;;;;6303661;22;20019;-82
2023/01/18 01:10:07;;;;;;;19.25;6.68;;;;;;;;;;6303493;22;20098;-82
2023/01/18 01:26:24;;;;;;;15.25;5.68;;;;;;;;;;6303702;22;20027;-82
2023/01/18 01:28:51;;;;;;;12.43;6.40;;;;;;;;;;6302955;22;20035;-82
2023/01/18 01:31:18;;;;;;;14.15;6.10;;;;;;;;;;6304473;22;20023;-82
2023/01/18 01:33:47;;;;;;;14.23;6.38;;;;;;;;;;6303318;22;20753;-82
2023/01/18 01:36:15;;;;;;;12.25;5.60;;;;;;;;;;6303473;22;20028;-82
2023/01/18 01:38:42;;;;;;;13.60;6.13;;;;;;;;;;6303004;22;20026;-82
2023/01/18 01:41:25;;;;;;;13.20;6.13;;;;;;;;;;6302794;22;20027;-82
2023/01/18 01:43:53;;;;;;;12.77;5.80;;;;;;;;;;6303003;22;20090;-82
2023/01/18 01:46:39;;;;;;;16.17;5.90;;;;;;;;;;6303497;22;20030;-82
2023/01/18 01:49:27;;;;;;;14.13;6.25;;;;;;;;;;6303236;22;20051;-82
2023/01/18 01:51:55;;;;;;;12.52;5.82;;;;;;;;;;6303330;22;20479;-81
2023/01/18 01:54:25;;;;;;;17.25;6.10;;;;;;;;;;6276152;22;20034;-82
2023/01/18 01:56:53;;;;;;;11.50;5.82;;;;;;;;;;6274798;22;20047;-82
2023/01/18 01:59:20;;;;;;;12.85;6.18;;;;;;;;;;6302854;22;20098;-81
2023/01/18 02:01:47;;;;;;;13.30;5.88;;;;;;;;;;6275534;22;20034;-82
2023/01/18 02:04:13;;;;;;;15.38;6.60;;;;;;;;;;6275767;22;20023;-81
2023/01/18 02:06:40;;;;;;;15.25;7.40;;;;;;;;;;6303470;22;20118;-82
2023/01/18 02:09:07;;;;;;;20.50;7.20;;;;;;;;;;6303711;22;20926;-82
2023/01/18 02:11:34;;;;;;;13.77;6.80;;;;;;;;;;6303568;22;20969;-82
2023/01/18 02:14:06;;;;;;;17.58;6.45;;;;;;;;;;6305068;22;20346;-81
2023/01/18 02:16:32;;;;;;;14.48;6.38;;;;;;;;;;6276619;22;20472;-82
2023/01/18 02:19:08;;;;;;;11.95;5.68;;;;;;;;;;6304211;22;20024;-82
2023/01/18 02:21:57;;;;;;;14.70;6.20;;;;;;;;;;6304380;22;20055;-82
2023/01/18 02:24:36;;;;;;;16.27;6.47;;;;;;;;;;6292120;22;20020;-82
2023/01/18 02:27:04;;;;;;;12.20;6.18;;;;;;;;;;6277858;22;20095;-81
2023/01/18 02:29:33;;;;;;;12.80;6.57;;;;;;;;;;6277425;22;20027;-81
2023/01/18 02:32:07;;;;;;;14.70;7.07;;;;;;;;;;6304712;22;20023;-82
2023/01/18 02:34:38;;;;;;;15.30;7.43;;;;;;;;;;6303951;22;20583;-82
2023/01/18 02:37:28;;;;;;;13.13;6.38;;;;;;;;;;6305056;22;20030;-81
2023/01/18 02:40:04;;;;;;;13.90;7.32;;;;;;;;;;6304648;22;20020;-81
2023/01/18 02:48:13;;;;;;;16.40;6.85;;;;;;;;;;6306008;22;20055;-81
2023/01/18 02:50:39;;;;;;;13.93;7.60;;;;;;;;;;6278286;22;20038;-82
2023/01/18 02:53:05;;;;;;;16.58;7.43;;;;;;;;;;6305373;22;20047;-81
2023/01/18 02:55:35;;;;;;;15.13;7.35;;;;;;;;;;6306803;22;20091;-82
2023/01/18 02:58:04;;;;;;;16.25;8.07;;;;;;;;;;6308232;22;20461;-82
2023/01/18 03:00:32;;;;;;;15.27;8.10;;;;;;;;;;6309943;22;20424;-82
2023/01/18 03:03:02;;;;;;;15.38;7.57;;;;;;;;;;6309413;22;20023;-83
2023/01/18 03:05:29;;;;;;;15.05;7.80;;;;;;;;;;6309699;22;20016;-82
2023/01/18 03:08:10;;;;;;;23.35;8.30;;;;;;;;;;6282471;22;20032;-82
2023/01/18 03:10:41;;;;;;;15.88;8.07;;;;;;;;;;6308282;22;20034;-82
2023/01/18 03:13:08;;;;;;;;;;;;;;;;;;6282177;22;20047;-83
2023/01/18 03:16:07;;;;;;;14.40;6.93;;;;;;;;;;6308055;22;46647;-82
2023/01/18 03:18:58;;;;;;;20.67;8.10;;;;;;;;;;6256566;22;20775;-83
2023/01/18 03:21:36;;;;;;;14.25;7.00;;;;;;;;;;6306889;22;20026;-82
2023/01/18 03:24:04;;;;;;;13.52;7.20;;;;;;;;;;6306960;22;20491;-82
2023/01/18 03:26:33;;;;;;;15.55;7.90;;;;;;;;;;6306913;22;20091;-81
2023/01/18 03:34:45;;;;;;;19.83;8.20;;;;;;;;;;6305961;22;20074;-82
2023/01/18 03:37:15;;;;;;;18.35;7.63;;;;;;;;;;6304671;22;20451;-82
2023/01/18 03:39:44;;;;;;;16.75;7.50;;;;;;;;;;6305451;22;20826;-82
2023/01/18 03:42:17;;;;;;;17.95;8.80;;;;;;;;;;6277801;22;20142;-83
2023/01/18 03:44:49;;;;;;;17.13;8.43;;;;;;;;;;6305537;22;20476;-81
2023/01/18 03:47:16;;;;;;;18.17;8.02;;;;;;;;;;6305251;22;20028;-81
2023/01/18 03:49:42;;;;;;;18.10;8.45;;;;;;;;;;6277879;22;20081;-82
2023/01/18 03:52:14;;;;;;;21.13;8.85;;;;;;;;;;6304189;22;20059;-82
2023/01/18 03:54:41;;;;;;;15.68;8.20;;;;;;;;;;6305031;22;20012;-82
2023/01/18 03:57:13;;;;;;;19.23;8.32;;;;;;;;;;6277727;22;20051;-82
2023/01/18 03:59:39;;;;;;;16.35;8.18;;;;;;;;;;6305858;22;20451;-82
2023/01/18 04:02:06;;;;;;;14.57;7.50;;;;;;;;;;6302593;22;20031;-82
2023/01/18 04:04:33;;;;;;;15.23;7.55;;;;;;;;;;6304372;22;20027;-82
2023/01/18 04:07:00;;;;;;;17.08;7.35;;;;;;;;;;6306591;22;20028;-82
2023/01/18 04:09:26;;;;;;;19.08;8.55;;;;;;;;;;6305892;22;20093;-82
2023/01/18 04:11:54;;;;;;;16.80;7.63;;;;;;;;;;6306614;22;20850;-82
2023/01/18 04:14:21;;;;;;;17.50;8.70;;;;;;;;;;6305973;22;20019;-82
2023/01/18 04:16:47;;;;;;;19.20;7.65;;;;;;;;;;6306205;22;20026;-82
2023/01/18 04:19:13;;;;;;;16.52;8.00;;;;;;;;;;6304828;22;20110;-82
2023/01/18 04:21:40;;;;;;;16.13;7.80;;;;;;;;;;6278957;22;20028;-82
2023/01/18 04:24:06;;;;;;;15.23;7.78;;;;;;;;;;6305823;22;20039;-83
2023/01/18 04:26:33;;;;;;;16.20;7.18;;;;;;;;;;6306477;22;20103;-82
2023/01/18 04:28:59;;;;;;;17.88;7.50;;;;;;;;;;6306799;22;20074;-82
2023/01/18 04:31:26;;;;;;;18.13;7.93;;;;;;;;;;6305425;22;20035;-81
2023/01/18 04:33:52;;;;;;;18.55;8.05;;;;;;;;;;6305759;22;20491;-82
2023/01/18 04:36:20;;;;;;;15.07;7.22;;;;;;;;;;6306164;22;20495;-82
2023/01/18 04:38:50;;;;;;;19.73;7.63;;;;;;;;;;6278476;22;20081;-82
2023/01/18 04:41:17;;;;;;;16.42;8.05;;;;;;;;;;6305522;22;20020;-82
2023/01/18 04:43:43;;;;;;;17.60;7.85;;;;;;;;;;6307173;22;20023;-83
2023/01/18 04:46:10;;;;;;;16.58;7.57;;;;;;;;;;6307574;22;20070;-83
2023/01/18 04:48:36;;;;;;;15.93;7.88;;;;;;;;;;6307253;22;20034;-83
2023/01/18 04:51:03;;;;;;;17.88;7.72;;;;;;;;;;6308262;22;20078;-83
2023/01/18 04:53:29;;;;;;;15.05;7.72;;;;;;;;;;6308246;22;20020;-82
2023/01/18 04:55:55;;;;;;;18.02;7.38;;;;;;;;;;6308784;22;20299;-82
2023/01/18 04:58:22;;;;;;;13.38;6.75;;;;;;;;;;6308806;22;20032;-83
2023/01/18 05:00:48;;;;;;;16.73;7.15;;;;;;;;;;6308937;22;20838;-82
2023/01/18 05:03:15;;;;;;;19.05;7.50;;;;;;;;;;6280468;22;20085;-83
2023/01/18 05:05:41;;;;;;;14.48;7.22;;;;;;;;;;6280248;22;20028;-83
2023/01/18 05:08:08;;;;;;;14.60;7.32;;;;;;;;;;6306928;22;20016;-83
2023/01/18 05:10:34;;;;;;;15.32;6.88;;;;;;;;;;6307430;22;20023;-83
2023/01/18 05:13:00;;;;;;;18.10;6.88;;;;;;;;;;6280719;22;20083;-83
2023/01/18 05:15:27;;;;;;;14.52;6.55;;;;;;;;;;6308438;22;20473;-82
2023/01/18 05:17:53;;;;;;;14.98;7.25;;;;;;;;;;6307966;22;20032;-83
2023/01/18 05:20:20;;;;;;;16.95;6.85;;;;;;;;;;6279808;22;20035;-82
2023/01/18 05:22:46;;;;;;;14.70;7.53;;;;;;;;;;6308875;22;20107;-83
2023/01/18 05:25:12;;;;;;;17.85;7.15;;;;;;;;;;6308264;22;20028;-83
2023/01/18 05:27:39;;;;;;;16.42;6.80;;;;;;;;;;6307150;22;20030;-82
2023/01/18 05:30:05;;;;;;;13.15;6.93;;;;;;;;;;6280377;22;20030;-83
2023/01/18 05:32:32;;;;;;;16.60;7.25;;;;;;;;;;6308544;22;20034;-83
2023/01/18 05:34:58;;;;;;;13.90;7.53;;;;;;;;;;6282114;22;20457;-83
2023/01/18 05:37:25;;;;;;;14.80;8.18;;;;;;;;;;6309823;22;20059;-83
2023/01/18 05:39:51;;;;;;;17.38;7.97;;;;;;;;;;6308324;22;20057;-82
2023/01/18 05:42:18;;;;;;;16.05;7.75;;;;;;;;;;6280280;22;20031;-83
2023/01/18 05:44:44;;;;;;;19.35;9.27;;;;;;;;;;6307043;22;20046;-83
2023/01/18 05:47:10;;;;;;;17.95;8.52;;;;;;;;;;6307097;22;20054;-82
2023/01/18 05:49:37;;;;;;;18.65;8.15;;;;;;;;;;6308469;22;20020;-83
2023/01/18 05:52:07;;;;;;;18.92;7.90;;;;;;;;;;6310031;22;20019;-84
2023/01/18 05:54:33;;;;;;;15.15;7.55;;;;;;;;;;6280087;22;20023;-83
2023/01/18 05:57:00;;;;;;;18.27;7.78;;;;;;;;;;6283773;22;20012;-85
2023/01/18 05:59:28;;;;;;;17.50;7.97;;;;;;;;;;6308861;22;20020;-84
2023/01/18 06:01:55;;;;;;;15.40;7.20;;;;;;;;;;6305940;22;20563;-84
2023/01/18 06:04:22;;;;;;;17.33;8.32;;;;;;;;;;6307155;22;20541;-84
2023/01/18 06:06:48;;;;;;;14.80;7.65;;;;;;;;;;6308218;22;20012;-82
2023/01/18 06:09:14;;;;;;;19.83;8.15;;;;;;;;;;6309025;22;20074;-84
2023/01/18 06:11:41;;;;;;;18.85;8.30;;;;;;;;;;6306949;22;20086;-84
2023/01/18 06:14:07;;;;;;;13.32;7.40;;;;;;;;;;6306049;22;20030;-84
2023/01/18 06:16:33;;;;;;;15.43;8.00;;;;;;;;;;6306373;22;20024;-85
2023/01/18 06:19:00;;;;;;;17.77;8.50;;;;;;;;;;6305825;22;20082;-84
2023/01/18 06:21:26;;;;;;;18.35;7.60;;;;;;;;;;6305526;22;20059;-84
2023/01/18 06:23:53;;;;;;;19.52;8.48;;;;;;;;;;6306416;22;20428;-85
2023/01/18 06:26:19;;;;;;;15.27;7.63;;;;;;;;;;6279727;22;20067;-85
2023/01/18 06:28:45;;;;;;;16.25;7.65;;;;;;;;;;6306041;22;20944;-84
2023/01/18 06:31:12;;;;;;;16.42;7.65;;;;;;;;;;6306480;22;20059;-84
2023/01/18 06:33:38;;;;;;;14.25;7.47;;;;;;;;;;6306913;22;20024;-85
2023/01/18 06:36:05;;;;;;;19.33;7.10;;;;;;;;;;6306789;22;20530;-84
2023/01/18 06:38:31;;;;;;;19.00;8.00;;;;;;;;;;6281854;22;20050;-84
2023/01/18 06:40:58;;;;;;;13.00;6.78;;;;;;;;;;6305597;22;20028;-84
2023/01/18 06:43:24;;;;;;;22.67;8.38;;;;;;;;;;6305654;22;20020;-85
2023/01/18 06:45:54;;;;;;;22.23;8.57;;;;;;;;;;6305776;22;20024;-85
2023/01/18 06:48:21;;;;;;;23.33;9.95;;;;;;;;;;6279396;22;20122;-85
2023/01/18 06:50:47;;;;;;;17.08;7.28;;;;;;;;;;6306487;22;20062;-85
2023/01/18 06:53:14;;;;;;;19.00;7.18;;;;;;;;;;6306575;22;20094;-84
2023/01/18 06:55:40;;;;;;;18.42;7.53;;;;;;;;;;6306905;22;20103;-85
2023/01/18 06:58:07;;;;;;;17.92;8.52;;;;;;;;;;6307622;22;20532;-85
2023/01/18 07:00:33;;;;;;;19.85;7.43;;;;;;;;;;6281130;22;20115;-85
2023/01/18 07:03:00;;;;;;;14.88;7.15;;;;;;;;;;6280574;22;20027;-85
2023/01/18 07:05:26;;;;;;;17.80;7.25;;;;;;;;;;6308375;22;20024;-85
2023/01/18 07:07:52;;;;;;;18.80;7.45;;;;;;;;;;6308069;22;20062;-85
2023/01/18 07:10:19;;;;;;;17.38;7.65;;;;;;;;;;6308556;22;20032;-85
2023/01/18 07:12:47;;;;;;;16.40;6.22;;;;;;;;;;6307351;22;20028;-85
2023/01/18 07:15:15;;;;;;;12.40;6.20;;;;;;;;;;6307293;22;20158;-84
2023/01/18 07:17:49;;;;;;;14.38;7.07;;;;;;;;;;6306539;22;20030;-84
2023/01/18 07:20:15;;;;;;;14.07;6.38;;;;;;;;;;6307144;22;20059;-85
2023/01/18 07:22:42;;;;;;;14.07;6.35;;;;;;;;;;6307554;22;20563;-85
2023/01/18 07:25:12;;;;;;;13.57;6.57;;;;;;;;;;6306070;22;20046;-84
2023/01/18 07:27:39;;;;;;;14.65;6.43;;;;;;;;;;6307160;22;20077;-85
2023/01/18 07:30:06;;;;;;;13.70;6.00;;;;;;;;;;6306406;22;20479;-85
2023/01/18 07:32:32;;;;;;;16.92;6.57;;;;;;;;;;6307908;22;20031;-82
2023/01/18 07:34:58;;;;;;;17.08;7.03;;;;;;;;;;6310366;22;20411;-83
2023/01/18 07:37:24;;;;;;;16.38;6.97;;;;;;;;;;6309667;22;20028;-83
2023/01/18 07:39:51;;;;;;;13.07;6.60;;;;;;;;;;6308530;22;20066;-82
2023/01/18 07:42:18;;;;;;;15.30;7.07;;;;;;;;;;6308076;22;20085;-82
2023/01/18 07:44:47;;;;;;;14.55;6.72;;;;;;;;;;6309047;22;20019;-83
2023/01/18 07:47:13;;;;;;;16.73;7.22;;;;;;;;;;6307278;22;20028;-83
2023/01/18 07:49:40;;;;;;;12.32;6.10;;;;;;;;;;6308698;22;20032;-82
2023/01/18 07:52:06;;;;;;;16.80;6.90;;;;;;;;;;6279305;22;20035;-82
2023/01/18 07:54:36;;;;;;;17.20;9.88;;;;;;;;;;6281213;22;20027;-82
2023/01/18 07:57:03;;;;;;;12.95;6.15;;;;;;;;;;6307655;22;20038;-82
2023/01/18 07:59:31;;;;;;;16.20;6.55;;;;;;;;;;6279898;22;20143;-82
2023/01/18 08:01:57;;;;;;;17.27;7.78;;;;;;;;;;6307543;22;20019;-84
2023/01/18 08:04:24;;;;;;;14.93;6.60;;;;;;;;;;6306629;22;20023;-85
2023/01/18 08:06:51;;;;;;;14.63;6.05;;;;;;;;;;6279705;22;20030;-85
2023/01/18 08:09:17;;;;;;;13.63;6.07;;;;;;;;;;6306191;22;20027;-85
2023/01/18 08:11:44;;;;;;;15.90;7.05;;;;;;;;;;6306059;22;20059;-85
2023/01/18 08:14:11;;;;;;;15.38;6.97;;;;;;;;;;6306821;22;20050;-85
2023/01/18 08:16:37;;;;;;;12.82;6.50;;;;;;;;;;6307446;22;20034;-85
2023/01/18 08:19:03;;;;;;;13.80;6.22;;;;;;;;;;6305758;22;20030;-86
2023/01/18 08:21:30;;;;;;;17.58;7.53;;;;;;;;;;6306369;22;20034;-85
2023/01/18 08:23:57;;;;;;;14.20;6.72;;;;;;;;;;6307406;22;20952;-85
2023/01/18 08:26:23;;;;;;;15.98;7.82;;;;;;;;;;6305628;22;20043;-85
2023/01/18 08:28:50;;;;;;;18.60;8.00;;;;;;;;;;6306051;22;20054;-83
2023/01/18 08:31:18;;;;;;;14.00;7.07;;;;;;;;;;6307062;22;20030;-83
2023/01/18 08:33:46;;;;;;;17.88;6.85;;;;;;;;;;6306859;22;20027;-83
2023/01/18 08:36:16;;;;;;;16.38;7.03;;;;;;;;;;6306353;22;20761;-82
2023/01/18 08:38:46;;;;;;;17.52;6.85;;;;;;;;;;6307410;22;20093;-83
2023/01/18 08:41:13;;;;;;;16.87;7.57;;;;;;;;;;6279211;22;20113;-82
2023/01/18 08:43:39;;;;;;;17.63;7.30;;;;;;;;;;6306642;22;20231;-85
2023/01/18 08:46:06;;;;;;;16.40;7.25;;;;;;;;;;6305352;22;20031;-85
2023/01/18 08:48:32;;;;;;;15.57;7.20;;;;;;;;;;6305844;22;20867;-82
2023/01/18 08:51:00;;;;;;;14.90;6.78;;;;;;;;;;6278246;22;21034;-85
2023/01/18 08:53:27;;;;;;;14.20;7.13;;;;;;;;;;6305752;22;20048;-85
2023/01/18 08:55:53;;;;;;;17.98;8.35;;;;;;;;;;6277948;22;20028;-85
2023/01/18 08:58:19;;;;;;;17.00;7.53;;;;;;;;;;6305032;22;20024;-85
2023/01/18 09:00:49;;;;;;;15.95;7.43;;;;;;;;;;6277900;22;20612;-86
2023/01/18 09:03:21;;;;;;;16.80;7.57;;;;;;;;;;6277864;22;20674;-82
2023/01/18 09:05:49;;;;;;;14.13;7.05;;;;;;;;;;6305415;22;20471;-83
2023/01/18 09:08:16;;;;;;;16.27;8.02;;;;;;;;;;6305138;22;20031;-82
2023/01/18 09:10:43;;;;;;;15.77;7.30;;;;;;;;;;6277705;22;20084;-82
2023/01/18 09:13:10;;;;;;;14.15;7.30;;;;;;;;;;6305129;22;20095;-83
2023/01/18 09:15:36;;;;;;;14.18;7.10;;;;;;;;;;6304831;22;20016;-83
2023/01/18 09:18:05;;;;;;;13.52;7.07;;;;;;;;;;6276871;22;20094;-83
2023/01/18 09:20:34;;;;;;;22.95;7.68;;;;;;;;;;6278856;22;20099;-83
2023/01/18 09:23:15;;;;;;;16.13;7.43;;;;;;;;;;6303301;22;20023;-83
2023/01/18 09:25:41;;;;;;;15.07;7.10;;;;;;;;;;6277217;22;20058;-84
2023/01/18 09:28:07;;;;;;;17.60;7.50;;;;;;;;;;6303761;22;20834;-82
2023/01/18 09:30:34;;;;;;;22.30;7.15;;;;;;;;;;6276571;22;20447;-83
2023/01/18 09:33:01;;;;;;;17.35;7.28;;;;;;;;;;6277781;22;20022;-84
2023/01/18 09:35:27;;;;;;;15.38;7.50;;;;;;;;;;6303403;22;20077;-83
2023/01/18 09:37:55;;;;;;;16.95;7.57;;;;;;;;;;6304010;22;20026;-83
2023/01/18 09:40:23;;;;;;;15.50;7.38;;;;;;;;;;6279126;22;20028;-83
2023/01/18 09:42:51;;;;;;;15.95;7.40;;;;;;;;;;6303360;22;20028;-84
2023/01/18 09:45:29;;;;;;;16.23;8.00;;;;;;;;;;6303565;22;20365;-83
2023/01/18 09:48:04;;;;;;;14.50;7.43;;;;;;;;;;6277622;22;20110;-84
2023/01/18 09:50:43;;;;;;;24.55;7.90;;;;;;;;;;6277381;22;20038;-83
2023/01/18 09:53:28;;;;;;;18.95;7.70;;;;;;;;;;6303575;22;20069;-83
2023/01/18 09:55:57;;;;;;;15.35;7.32;;;;;;;;;;6303914;22;20036;-83
2023/01/18 09:58:29;;;;;;;15.80;7.43;;;;;;;;;;6302753;22;20058;-83
2023/01/18 10:01:25;;;;;;;16.80;7.00;;;;;;;;;;6302798;22;20755;-84
2023/01/18 10:03:57;;;;;;;15.75;8.02;;;;;;;;;;6256694;22;20211;-84
2023/01/18 10:06:42;;;;;;;15.70;7.22;;;;;;;;;;6303491;22;20106;-83
2023/01/18 10:09:18;;;;;;;13.65;7.07;;;;;;;;;;6303442;22;20020;-84
2023/01/18 10:11:55;;;;;;;16.45;8.02;;;;;;;;;;6303081;22;20035;-83
2023/01/18 10:14:27;;;;;;;15.98;8.25;;;;;;;;;;6275707;22;20027;-84
2023/01/18 10:16:56;;;;;;;15.13;7.38;;;;;;;;;;6275290;22;20024;-85
2023/01/18 10:19:30;;;;;;;13.27;6.93;;;;;;;;;;6302913;22;20020;-84
2023/01/18 10:22:11;;;;;;;10.93;6.55;;;;;;;;;;6303266;22;20058;-83
2023/01/18 10:24:37;;;;;;;14.27;6.60;;;;;;;;;;6303134;22;20111;-85
2023/01/18 10:27:28;;;;;;;19.63;7.57;;;;;;;;;;6275008;22;20024;-85
2023/01/18 10:29:57;;;;;;;13.63;7.18;;;;;;;;;;6302920;22;20024;-85
2023/01/18 10:32:24;;;;;;;14.55;6.97;;;;;;;;;;6302622;22;20028;-84
2023/01/18 10:34:51;;;;;;;16.52;7.20;;;;;;;;;;6304459;22;20024;-85
2023/01/18 10:37:26;;;;;;;13.23;7.00;;;;;;;;;;6276896;22;20031;-85
2023/01/18 10:39:56;;;;;;;12.25;6.65;;;;;;;;;;6304818;22;20873;-84
2023/01/18 10:42:25;;;;;;;13.48;6.90;;;;;;;;;;6304693;22;20032;-84
2023/01/18 10:44:52;;;;;;;14.52;7.13;;;;;;;;;;6276627;22;20109;-84
2023/01/18 10:47:19;;;;;;;18.20;7.22;;;;;;;;;;6304166;22;20058;-84
2023/01/18 10:49:47;;;;;;;14.43;7.20;;;;;;;;;;6277042;22;20043;-84
2023/01/18 10:52:24;;;;;;;12.60;6.72;;;;;;;;;;6277167;22;20032;-84
2023/01/18 10:55:00;;;;;;;11.73;6.45;;;;;;;;;;6277093;22;20121;-84
2023/01/18 10:57:33;;;;;;;16.40;7.25;;;;;;;;;;6304205;22;20030;-85
2023/01/18 11:00:01;;;;;;;14.05;6.85;;;;;;;;;;6304485;22;20153;-85
2023/01/18 11:02:34;;;;;;;18.08;7.30;;;;;;;;;;6305050;22;20523;-85
2023/01/18 11:05:09;;;;;;;15.55;7.50;;;;;;;;;;6304164;22;20485;-85
2023/01/18 11:11:17;;;;;;;16.02;7.30;;;;;;;;;;6307264;22;20011;-85
2023/01/18 11:17:32;;;;;;;13.55;6.65;;;;;;;;;;6308569;22;20007;-84
2023/01/18 11:20:05;;;;;;;16.23;6.97;;;;;;;;;;6304591;22;20538;-84
2023/01/18 11:22:36;;;;;;;12.38;6.72;;;;;;;;;;6304933;22;20494;-84
2023/01/18 11:25:17;;;;;;;15.63;7.20;;;;;;;;;;6304115;22;20023;-84
2023/01/18 11:34:59;;;;;;;12.75;6.15;;;;;;;;;;6113198;23;20049;-84
2023/01/18 11:37:42;;;;;;;14.00;5.90;;;;;;;;;;6292720;22;20024;-84
2023/01/18 11:40:21;;;;;;;12.85;6.60;;;;;;;;;;6278952;22;20091;-84
2023/01/18 11:43:08;;;;;;;14.27;6.35;;;;;;;;;;6304561;22;20073;-84
2023/01/18 11:46:00;;;;;;;15.57;6.30;;;;;;;;;;6279422;22;20027;-84
2023/01/18 11:48:53;;;;;;;12.93;6.85;;;;;;;;;;6309794;22;20099;-84
2023/01/18 11:51:44;;;;;;;12.23;6.30;;;;;;;;;;6276427;22;20028;-83
2023/01/18 11:54:21;;;;;;;14.18;6.57;;;;;;;;;;6305249;22;20023;-85
2023/01/18 11:56:49;;;;;;;13.25;6.20;;;;;;;;;;6275610;22;20023;-86
2023/01/18 11:59:24;;;;;;;12.68;7.00;;;;;;;;;;6275456;22;20115;-87
2023/01/18 12:02:09;;;;;;;14.70;7.20;;;;;;;;;;6303298;22;20024;-87
2023/01/18 12:04:51;;;;;;;9.35;6.07;;;;;;;;;;6276307;22;20505;-86
2023/01/18 12:07:33;;;;;;;11.27;6.32;;;;;;;;;;6273857;22;20035;-86
2023/01/18 12:10:00;;;;;;;13.30;6.85;;;;;;;;;;6303227;22;20063;-87
2023/01/18 12:12:26;;;;;;;19.08;7.18;;;;;;;;;;6302768;22;20035;-87
2023/01/18 12:15:12;;;;;;;12.05;6.72;;;;;;;;;;6301993;22;20114;-87
2023/01/18 12:17:42;;;;;;;14.48;6.60;;;;;;;;;;6302598;22;20814;-87
2023/01/18 12:20:13;;;;;;;16.15;6.85;;;;;;;;;;6301398;22;20027;-87
2023/01/18 12:23:15;;;;;;;13.60;6.65;;;;;;;;;;6302480;22;20024;-86
2023/01/18 12:25:56;;;;;;;14.07;6.03;;;;;;;;;;6208815;23;20383;-87
2023/01/18 12:28:57;;;;;;;14.43;6.22;;;;;;;;;;6278748;22;20024;-86
2023/01/18 12:31:37;;;;;;;14.38;6.20;;;;;;;;;;6302025;22;20023;-86
2023/01/18 12:34:12;;;;;;;14.95;6.60;;;;;;;;;;6301100;22;20058;-86
2023/01/18 12:37:01;;;;;;;15.25;7.30;;;;;;;;;;6301609;22;20078;-86
2023/01/18 12:39:27;;;;;;;12.50;6.13;;;;;;;;;;6303328;22;20023;-86
2023/01/18 12:42:03;;;;;;;11.90;5.80;;;;;;;;;;6302745;22;20339;-86
2023/01/18 12:44:44;;;;;;;11.77;5.40;;;;;;;;;;6303184;22;20028;-85
2023/01/18 12:47:31;;;;;;;17.77;5.40;;;;;;;;;;6301371;22;20130;-86
2023/01/18 12:49:58;;;;;;;9.27;4.90;;;;;;;;;;6274867;22;20027;-86
2023/01/18 12:52:26;;;;;;;11.45;4.88;;;;;;;;;;6302086;22;20024;-86
2023/01/18 12:55:03;;;;;;;10.95;5.30;;;;;;;;;;6303112;22;20514;-86
2023/01/18 12:57:35;;;;;;;16.80;5.00;;;;;;;;;;6302062;22;20489;-86
2023/01/18 13:00:05;;;;;;;11.60;4.82;;;;;;;;;;6301716;22;20030;-86
2023/01/18 13:02:36;;;;;;;11.13;4.70;;;;;;;;;;6275829;22;20031;-86
2023/01/18 13:05:12;;;;;;;8.40;4.15;;;;;;;;;;6302573;22;20020;-86
2023/01/18 13:07:40;;;;;;;8.60;4.32;;;;;;;;;;6300326;22;20027;-86
2023/01/18 13:10:14;;;;;;;11.48;4.32;;;;;;;;;;6275022;22;20078;-86
2023/01/18 13:12:43;;;;;;;9.70;3.55;;;;;;;;;;6274084;22;20020;-86
2023/01/18 13:15:20;;;;;;;9.13;4.07;;;;;;;;;;6302647;22;20518;-86
2023/01/18 13:18:04;;;;;;;8.23;3.75;;;;;;;;;;6301293;22;20019;-86
2023/01/18 13:27:30;;;;;;;8.05;3.13;;;;;;;;;;6303244;22;20091;-86
2023/01/18 13:30:13;;;;;;;8.93;3.15;;;;;;;;;;6302376;22;20019;-85
2023/01/18 13:32:42;;;;;;;8.35;3.72;;;;;;;;;;6302163;22;20496;-86
2023/01/18 13:38:54;;;;;;;8.73;3.42;;;;;;;;;;6302487;22;20448;-87
2023/01/18 13:41:22;;;;;;;10.70;3.65;;;;;;;;;;6302491;22;20032;-84
2023/01/18 13:43:48;;;;;;;8.98;3.72;;;;;;;;;;6302191;22;20016;-85
2023/01/18 13:46:22;;;;;;;9.07;3.50;;;;;;;;;;6302858;22;20020;-85
2023/01/18 13:48:53;;;;;;;8.10;3.30;;;;;;;;;;6301894;22;20023;-85
2023/01/18 13:51:38;;;;;;;7.38;3.65;;;;;;;;;;6300743;22;20027;-85
2023/01/18 13:54:08;;;;;;;12.13;3.58;;;;;;;;;;6301299;22;20530;-85
2023/01/18 13:56:36;;;;;;;9.45;3.28;;;;;;;;;;6301971;22;20072;-86
2023/01/18 13:59:11;;;;;;;7.68;3.55;;;;;;;;;;6301858;22;20027;-86
2023/01/18 14:01:39;;;;;;;7.32;3.25;;;;;;;;;;6301816;22;20032;-86
2023/01/18 14:04:23;;;;;;;8.38;3.60;;;;;;;;;;6302833;22;20035;-86
2023/01/18 14:06:50;;;;;;;8.23;3.10;;;;;;;;;;6300763;22;20495;-86
2023/01/18 14:09:17;;;;;;;9.23;3.67;;;;;;;;;;6276057;22;20032;-86
2023/01/18 14:11:52;;;;;;;7.28;3.20;;;;;;;;;;6273509;22;20026;-85
2023/01/18 14:14:27;;;;;;;6.03;2.67;;;;;;;;;;6275941;22;20106;-86
2023/01/18 14:16:58;;;;;;;7.28;3.05;;;;;;;;;;6275378;22;20020;-86
2023/01/18 14:19:27;;;;;;;8.32;3.15;;;;;;;;;;6302368;22;20023;-86
2023/01/18 14:22:13;;;;;;;8.60;3.67;;;;;;;;;;6274401;22;20034;-86
2023/01/18 14:24:58;;;;;;;7.18;2.70;;;;;;;;;;6300944;22;20078;-86
2023/01/18 14:27:27;;;;;;;6.35;3.00;;;;;;;;;;6276009;22;20589;-86
2023/01/18 14:30:05;;;;;;;6.78;3.33;;;;;;;;;;6300461;22;20038;-86
2023/01/18 14:32:36;;;;;;;6.70;3.05;;;;;;;;;;6269974;22;20094;-86
2023/01/18 14:35:14;;;;;;;9.82;3.15;;;;;;;;;;6302855;22;20107;-86
2023/01/18 14:37:40;;;;;;;9.57;4.28;;;;;;;;;;6301964;22;20865;-86
2023/01/18 14:40:15;;;;;;;10.70;3.47;;;;;;;;;;6303754;22;20028;-86
2023/01/18 14:42:46;;;;;;;6.07;3.22;;;;;;;;;;6276160;22;20028;-85
2023/01/18 14:45:39;;;;;;;8.13;3.60;;;;;;;;;;6300326;22;20028;-86
2023/01/18 14:48:18;;;;;;;7.68;3.20;;;;;;;;;;6298136;22;20114;-86
2023/01/18 14:50:46;;;;;;;7.53;2.95;;;;;;;;;;6302450;22;20042;-86
2023/01/18 14:53:18;;;;;;;8.43;3.10;;;;;;;;;;6302143;22;20058;-86
2023/01/18 14:55:59;;;;;;;7.68;3.25;;;;;;;;;;6302740;22;20023;-83
2023/01/18 14:58:26;;;;;;;8.90;3.40;;;;;;;;;;6303266;22;20081;-86
2023/01/18 15:00:53;;;;;;;6.88;2.80;;;;;;;;;;6302617;22;20024;-86
2023/01/18 15:03:21;;;;;;;6.57;3.10;;;;;;;;;;6300984;22;20027;-87
2023/01/18 15:05:51;;;;;;;9.98;2.75;;;;;;;;;;6275889;22;20023;-87
2023/01/18 15:08:33;;;;;;;6.50;2.63;;;;;;;;;;6278188;22;20297;-87
2023/01/18 15:11:00;;;;;;;5.85;2.63;;;;;;;;;;6302426;22;20032;-86
2023/01/18 15:13:28;;;;;;;9.27;3.83;;;;;;;;;;6302647;22;20498;-87
2023/01/18 15:16:00;;;;;;;7.13;2.83;;;;;;;;;;6302469;22;20042;-87
2023/01/18 15:22:17;;;;;;;7.10;2.60;;;;;;;;;;6303780;22;20019;-87
2023/01/18 15:27:57;;;;;;;9.32;4.53;;;;;;;;;;6302261;22;20020;-89
2023/01/18 15:30:24;;;;;;;12.10;4.75;;;;;;;;;;6303022;22;20023;-87
2023/01/18 15:32:55;;;;;;;9.25;3.60;;;;;;;;;;6302807;22;20103;-87
2023/01/18 15:35:21;;;;;;;;;;;;;;;;;;6301414;22;20101;-88
2023/01/18 15:38:03;;;;;;;10.13;3.45;;;;;;;;;;6298056;22;19919;-87
2023/01/18 16:04:04;;;;;;;7.53;3.90;;;;;;;;;;6303048;22;20052;-88
2023/01/18 16:06:39;;;;;;;7.38;3.47;;;;;;;;;;6302881;22;20030;-88
